^^
Station Historical Data
Daily Summary for April 5, 2019 Units:  Both    English   Metric
« Previous Day
Next Day »
Daily Weekly Monthly Yearly Custom
  High: Low: Average:
Temperature: 53.3 °F /  11.8 °C 36.6 °F /  2.6 °C 43.2 °F /  6.2 °C
Dew Point: 44.4 °F /  6.9 °C 35.3 °F /  1.8 °C 39 °F /  3.9 °C
Humidity: 96% 67% 86%
Wind Speed: 24.0mph /  38.6km/h - 8mph /  12.9km/h
Wind Gust: 27.0mph /  43.5km/h - -
Wind- - East
Pressure: 29.87 in /  1011.4 hPa 29.79 in /  1008.7 hPa -
Precipitation: 0.00 in /  0 mm    
Historical Graphs
 
 
Tabular Data for April 5, 2019
Time Temperature Dew Point Pressure Wind Wind Speed Wind Gust Humidity Rainfall Rate (Hourly) solar Conditions
00:04 41.0 °F /  5 °C 38.9 °F /  3.8 °C 29.82in /  1009.7hPa East 3.0mph /  4.8km/h 6.0mph /  9.7km/h 92% 0.00in /  0mm 0.00 W/m2
00:09 41.1 °F /  5.1 °C 39.0 °F /  3.9 °C 29.82in /  1009.7hPa ESE 4.0mph /  6.4km/h 6.0mph /  9.7km/h 92% 0.00in /  0mm 0.00 W/m2
00:14 41.1 °F /  5.1 °C 38.7 °F /  3.7 °C 29.81in /  1009.4hPa SE 4.0mph /  6.4km/h 6.0mph /  9.7km/h 91% 0.00in /  0mm 0.00 W/m2
00:19 41.1 °F /  5.1 °C 38.7 °F /  3.7 °C 29.81in /  1009.4hPa SE 4.0mph /  6.4km/h 6.0mph /  9.7km/h 91% 0.00in /  0mm 0.00 W/m2
00:24 41.3 °F /  5.2 °C 39.2 °F /  4 °C 29.81in /  1009.4hPa ESE 3.0mph /  4.8km/h 7.0mph /  11.3km/h 92% 0.00in /  0mm 0.00 W/m2
00:29 41.3 °F /  5.2 °C 38.9 °F /  3.8 °C 29.82in /  1009.7hPa SE 5.0mph /  8km/h 7.0mph /  11.3km/h 91% 0.00in /  0mm 0.00 W/m2
00:34 41.2 °F /  5.1 °C 38.8 °F /  3.8 °C 29.82in /  1009.7hPa SE 6.0mph /  9.7km/h 7.0mph /  11.3km/h 91% 0.00in /  0mm 0.00 W/m2
00:39 41.3 °F /  5.2 °C 38.9 °F /  3.8 °C 29.82in /  1009.7hPa SE 3.0mph /  4.8km/h 7.0mph /  11.3km/h 91% 0.00in /  0mm 0.00 W/m2
00:44 41.1 °F /  5.1 °C 38.7 °F /  3.7 °C 29.82in /  1009.7hPa SE 4.0mph /  6.4km/h 7.0mph /  11.3km/h 91% 0.00in /  0mm 0.00 W/m2
00:49 41.0 °F /  5 °C 38.6 °F /  3.7 °C 29.82in /  1009.7hPa SSE 4.0mph /  6.4km/h 7.0mph /  11.3km/h 91% 0.00in /  0mm 0.00 W/m2
00:54 40.9 °F /  4.9 °C 38.5 °F /  3.6 °C 29.82in /  1009.7hPa SE 3.0mph /  4.8km/h 6.0mph /  9.7km/h 91% 0.00in /  0mm 0.00 W/m2
00:59 41.0 °F /  5 °C 38.6 °F /  3.7 °C 29.82in /  1009.7hPa SE 5.0mph /  8km/h 6.0mph /  9.7km/h 91% 0.00in /  0mm 0.00 W/m2
01:04 41.0 °F /  5 °C 38.6 °F /  3.7 °C 29.82in /  1009.7hPa SE 4.0mph /  6.4km/h 6.0mph /  9.7km/h 91% 0.00in /  0mm 0.00 W/m2
01:09 40.8 °F /  4.9 °C 38.4 °F /  3.6 °C 29.82in /  1009.7hPa SSE 5.0mph /  8km/h 6.0mph /  9.7km/h 91% 0.00in /  0mm 0.00 W/m2
01:14 40.7 °F /  4.8 °C 38.3 °F /  3.5 °C 29.82in /  1009.7hPa SSE 5.0mph /  8km/h 7.0mph /  11.3km/h 91% 0.00in /  0mm 0.00 W/m2
01:19 40.7 °F /  4.8 °C 38.3 °F /  3.5 °C 29.82in /  1009.7hPa SSE 4.0mph /  6.4km/h 7.0mph /  11.3km/h 91% 0.00in /  0mm 0.00 W/m2
01:24 40.5 °F /  4.7 °C 38.1 °F /  3.4 °C 29.82in /  1009.7hPa SE 5.0mph /  8km/h 7.0mph /  11.3km/h 91% 0.00in /  0mm 0.00 W/m2
01:29 40.0 °F /  4.4 °C 37.6 °F /  3.1 °C 29.82in /  1009.7hPa SE 5.0mph /  8km/h 8.0mph /  12.9km/h 91% 0.00in /  0mm 0.00 W/m2
01:34 39.7 °F /  4.3 °C 37.3 °F /  2.9 °C 29.82in /  1009.7hPa SE 6.0mph /  9.7km/h 8.0mph /  12.9km/h 91% 0.00in /  0mm 0.00 W/m2
01:39 39.4 °F /  4.1 °C 37.0 °F /  2.8 °C 29.82in /  1009.7hPa SE 5.0mph /  8km/h 7.0mph /  11.3km/h 91% 0.00in /  0mm 0.00 W/m2
01:44 39.2 °F /  4 °C 37.1 °F /  2.8 °C 29.82in /  1009.7hPa SE 5.0mph /  8km/h 7.0mph /  11.3km/h 92% 0.00in /  0mm 0.00 W/m2
01:49 39.1 °F /  3.9 °C 37.0 °F /  2.8 °C 29.81in /  1009.4hPa SE 6.0mph /  9.7km/h 7.0mph /  11.3km/h 92% 0.00in /  0mm 0.00 W/m2
01:54 39.1 °F /  3.9 °C 37.2 °F /  2.9 °C 29.81in /  1009.4hPa ESE 7.0mph /  11.3km/h 7.0mph /  11.3km/h 93% 0.00in /  0mm 0.00 W/m2
01:59 39.2 °F /  4 °C 37.3 °F /  2.9 °C 29.81in /  1009.4hPa ESE 5.0mph /  8km/h 7.0mph /  11.3km/h 93% 0.00in /  0mm 0.00 W/m2
02:04 39.0 °F /  3.9 °C 36.9 °F /  2.7 °C 29.81in /  1009.4hPa ESE 5.0mph /  8km/h 7.0mph /  11.3km/h 92% 0.00in /  0mm 0.00 W/m2
02:09 38.8 °F /  3.8 °C 36.9 °F /  2.7 °C 29.81in /  1009.4hPa ESE 5.0mph /  8km/h 5.0mph /  8km/h 93% 0.00in /  0mm 0.00 W/m2
02:14 38.7 °F /  3.7 °C 36.9 °F /  2.7 °C 29.81in /  1009.4hPa ESE 4.0mph /  6.4km/h 6.0mph /  9.7km/h 93% 0.00in /  0mm 0.00 W/m2
02:19 38.7 °F /  3.7 °C 36.9 °F /  2.7 °C 29.82in /  1009.7hPa East 3.0mph /  4.8km/h 6.0mph /  9.7km/h 93% 0.00in /  0mm 0.00 W/m2
02:24 38.9 °F /  3.8 °C 37.3 °F /  2.9 °C 29.81in /  1009.4hPa ESE 4.0mph /  6.4km/h 6.0mph /  9.7km/h 94% 0.00in /  0mm 0.00 W/m2
02:29 39.0 °F /  3.9 °C 37.1 °F /  2.8 °C 29.81in /  1009.4hPa ESE 6.0mph /  9.7km/h 6.0mph /  9.7km/h 93% 0.00in /  0mm 0.00 W/m2
02:34 39.2 °F /  4 °C 37.6 °F /  3.1 °C 29.81in /  1009.4hPa SE 5.0mph /  8km/h 7.0mph /  11.3km/h 94% 0.00in /  0mm 0.00 W/m2
02:39 39.3 °F /  4.1 °C 37.7 °F /  3.2 °C 29.81in /  1009.4hPa SE 5.0mph /  8km/h 7.0mph /  11.3km/h 94% 0.00in /  0mm 0.00 W/m2
02:44 39.3 °F /  4.1 °C 37.7 °F /  3.2 °C 29.82in /  1009.7hPa ENE 2.0mph /  3.2km/h 6.0mph /  9.7km/h 94% 0.00in /  0mm 0.00 W/m2
02:49 38.6 °F /  3.7 °C 36.8 °F /  2.7 °C 29.82in /  1009.7hPa ENE 3.0mph /  4.8km/h 5.0mph /  8km/h 93% 0.00in /  0mm 0.00 W/m2
02:54 38.3 °F /  3.5 °C 36.5 °F /  2.5 °C 29.81in /  1009.4hPa East 2.0mph /  3.2km/h 5.0mph /  8km/h 93% 0.00in /  0mm 0.00 W/m2
02:59 37.9 °F /  3.3 °C 36.1 °F /  2.3 °C 29.81in /  1009.4hPa East 3.0mph /  4.8km/h 5.0mph /  8km/h 93% 0.00in /  0mm 0.00 W/m2
03:04 37.7 °F /  3.2 °C 35.9 °F /  2.2 °C 29.81in /  1009.4hPa East 3.0mph /  4.8km/h 3.0mph /  4.8km/h 93% 0.00in /  0mm 0.00 W/m2
03:09 37.9 °F /  3.3 °C 36.3 °F /  2.4 °C 29.81in /  1009.4hPa East 3.0mph /  4.8km/h 3.0mph /  4.8km/h 94% 0.00in /  0mm 0.00 W/m2
03:14 38.2 °F /  3.4 °C 36.6 °F /  2.6 °C 29.81in /  1009.4hPa East 3.0mph /  4.8km/h 3.0mph /  4.8km/h 94% 0.00in /  0mm 0.00 W/m2
03:19 38.2 °F /  3.4 °C 36.6 °F /  2.6 °C 29.81in /  1009.4hPa ESE 5.0mph /  8km/h 7.0mph /  11.3km/h 94% 0.00in /  0mm 0.00 W/m2
03:24 38.4 °F /  3.6 °C 36.8 °F /  2.7 °C 29.81in /  1009.4hPa East 5.0mph /  8km/h 7.0mph /  11.3km/h 94% 0.00in /  0mm 0.00 W/m2
03:29 38.3 °F /  3.5 °C 36.7 °F /  2.6 °C 29.80in /  1009hPa East 5.0mph /  8km/h 7.0mph /  11.3km/h 94% 0.00in /  0mm 0.00 W/m2
03:34 38.3 °F /  3.5 °C 36.7 °F /  2.6 °C 29.80in /  1009hPa East 5.0mph /  8km/h 7.0mph /  11.3km/h 94% 0.00in /  0mm 0.00 W/m2
03:39 38.1 °F /  3.4 °C 36.5 °F /  2.5 °C 29.80in /  1009hPa ESE 7.0mph /  11.3km/h 8.0mph /  12.9km/h 94% 0.00in /  0mm 0.00 W/m2
03:44 38.0 °F /  3.3 °C 36.4 °F /  2.4 °C 29.80in /  1009hPa ESE 4.0mph /  6.4km/h 8.0mph /  12.9km/h 94% 0.00in /  0mm 0.00 W/m2
03:49 38.0 °F /  3.3 °C 36.4 °F /  2.4 °C 29.80in /  1009hPa East 7.0mph /  11.3km/h 8.0mph /  12.9km/h 94% 0.00in /  0mm 0.00 W/m2
03:54 37.9 °F /  3.3 °C 36.3 °F /  2.4 °C 29.80in /  1009hPa ESE 4.0mph /  6.4km/h 7.0mph /  11.3km/h 94% 0.00in /  0mm 0.00 W/m2
03:59 37.9 °F /  3.3 °C 36.3 °F /  2.4 °C 29.80in /  1009hPa East 7.0mph /  11.3km/h 7.0mph /  11.3km/h 94% 0.00in /  0mm 0.00 W/m2
04:04 37.9 °F /  3.3 °C 36.3 °F /  2.4 °C 29.80in /  1009hPa ESE 7.0mph /  11.3km/h 7.0mph /  11.3km/h 94% 0.00in /  0mm 0.00 W/m2
04:09 38.1 °F /  3.4 °C 36.5 °F /  2.5 °C 29.80in /  1009hPa ESE 5.0mph /  8km/h 8.0mph /  12.9km/h 94% 0.00in /  0mm 0.00 W/m2
04:14 38.2 °F /  3.4 °C 36.6 °F /  2.6 °C 29.80in /  1009hPa ESE 5.0mph /  8km/h 8.0mph /  12.9km/h 94% 0.00in /  0mm 0.00 W/m2
04:19 38.3 °F /  3.5 °C 37.0 °F /  2.8 °C 29.80in /  1009hPa ESE 5.0mph /  8km/h 7.0mph /  11.3km/h 95% 0.00in /  0mm 0.00 W/m2
04:24 38.3 °F /  3.5 °C 37.0 °F /  2.8 °C 29.80in /  1009hPa East 5.0mph /  8km/h 7.0mph /  11.3km/h 95% 0.00in /  0mm 0.00 W/m2
04:29 38.0 °F /  3.3 °C 36.4 °F /  2.4 °C 29.80in /  1009hPa ESE 7.0mph /  11.3km/h 7.0mph /  11.3km/h 94% 0.00in /  0mm 0.00 W/m2
04:34 38.0 °F /  3.3 °C 36.4 °F /  2.4 °C 29.80in /  1009hPa East 6.0mph /  9.7km/h 8.0mph /  12.9km/h 94% 0.00in /  0mm 0.00 W/m2
04:39 38.1 °F /  3.4 °C 36.8 °F /  2.7 °C 29.80in /  1009hPa ESE 5.0mph /  8km/h 8.0mph /  12.9km/h 95% 0.00in /  0mm 0.00 W/m2
04:44 38.1 °F /  3.4 °C 36.8 °F /  2.7 °C 29.80in /  1009hPa ESE 3.0mph /  4.8km/h 8.0mph /  12.9km/h 95% 0.00in /  0mm 0.00 W/m2
04:49 38.2 °F /  3.4 °C 36.9 °F /  2.7 °C 29.81in /  1009.4hPa SE 2.0mph /  3.2km/h 6.0mph /  9.7km/h 95% 0.00in /  0mm 0.00 W/m2
04:54 38.1 °F /  3.4 °C 36.8 °F /  2.7 °C 29.81in /  1009.4hPa SSE 2.0mph /  3.2km/h 5.0mph /  8km/h 95% 0.00in /  0mm 0.00 W/m2
04:59 38.0 °F /  3.3 °C 36.7 °F /  2.6 °C 29.80in /  1009hPa SE 3.0mph /  4.8km/h 4.0mph /  6.4km/h 95% 0.00in /  0mm 0.00 W/m2
05:04 38.0 °F /  3.3 °C 36.7 °F /  2.6 °C 29.80in /  1009hPa ESE 1.0mph /  1.6km/h 4.0mph /  6.4km/h 95% 0.00in /  0mm 0.00 W/m2
05:09 38.2 °F /  3.4 °C 36.9 °F /  2.7 °C 29.80in /  1009hPa ENE 3.0mph /  4.8km/h 5.0mph /  8km/h 95% 0.00in /  0mm 0.00 W/m2
05:14 38.2 °F /  3.4 °C 36.9 °F /  2.7 °C 29.80in /  1009hPa ENE 5.0mph /  8km/h 5.0mph /  8km/h 95% 0.00in /  0mm 0.00 W/m2
05:19 38.2 °F /  3.4 °C 36.9 °F /  2.7 °C 29.80in /  1009hPa ENE 5.0mph /  8km/h 7.0mph /  11.3km/h 95% 0.00in /  0mm 0.00 W/m2
05:24 38.2 °F /  3.4 °C 36.9 °F /  2.7 °C 29.80in /  1009hPa ENE 7.0mph /  11.3km/h 8.0mph /  12.9km/h 95% 0.00in /  0mm 0.00 W/m2
05:29 37.9 °F /  3.3 °C 36.6 °F /  2.6 °C 29.80in /  1009hPa ENE 5.0mph /  8km/h 8.0mph /  12.9km/h 95% 0.00in /  0mm 0.00 W/m2
05:34 37.7 °F /  3.2 °C 36.4 °F /  2.4 °C 29.79in /  1008.7hPa East 7.0mph /  11.3km/h 8.0mph /  12.9km/h 95% 0.00in /  0mm 0.00 W/m2
05:39 37.8 °F /  3.2 °C 36.5 °F /  2.5 °C 29.79in /  1008.7hPa East 6.0mph /  9.7km/h 8.0mph /  12.9km/h 95% 0.00in /  0mm 0.00 W/m2
05:44 37.9 °F /  3.3 °C 36.6 °F /  2.6 °C 29.79in /  1008.7hPa East 7.0mph /  11.3km/h 8.0mph /  12.9km/h 95% 0.00in /  0mm 0.00 W/m2
05:49 38.0 °F /  3.3 °C 36.7 °F /  2.6 °C 29.79in /  1008.7hPa ESE 7.0mph /  11.3km/h 8.0mph /  12.9km/h 95% 0.00in /  0mm 0.00 W/m2
05:54 38.0 °F /  3.3 °C 36.7 °F /  2.6 °C 29.79in /  1008.7hPa SE 9.0mph /  14.5km/h 9.0mph /  14.5km/h 95% 0.00in /  0mm 0.00 W/m2
05:59 37.7 °F /  3.2 °C 36.4 °F /  2.4 °C 29.79in /  1008.7hPa ESE 4.0mph /  6.4km/h 9.0mph /  14.5km/h 95% 0.00in /  0mm 0.00 W/m2
06:04 37.6 °F /  3.1 °C 36.3 °F /  2.4 °C 29.80in /  1009hPa SE 4.0mph /  6.4km/h 9.0mph /  14.5km/h 95% 0.00in /  0mm 0.00 W/m2
06:09 37.5 °F /  3.1 °C 36.2 °F /  2.3 °C 29.80in /  1009hPa SE 5.0mph /  8km/h 6.0mph /  9.7km/h 95% 0.00in /  0mm 0.00 W/m2
06:14 37.7 °F /  3.2 °C 36.4 °F /  2.4 °C 29.80in /  1009hPa SE 3.0mph /  4.8km/h 6.0mph /  9.7km/h 95% 0.00in /  0mm 0.00 W/m2
06:19 37.7 °F /  3.2 °C 36.4 °F /  2.4 °C 29.80in /  1009hPa SE 2.0mph /  3.2km/h 6.0mph /  9.7km/h 95% 0.00in /  0mm 0.00 W/m2
06:24 37.7 °F /  3.2 °C 36.4 °F /  2.4 °C 29.80in /  1009hPa ESE 3.0mph /  4.8km/h 5.0mph /  8km/h 95% 0.00in /  0mm 0.00 W/m2
06:29 37.8 °F /  3.2 °C 36.5 °F /  2.5 °C 29.80in /  1009hPa SE 4.0mph /  6.4km/h 5.0mph /  8km/h 95% 0.00in /  0mm 0.00 W/m2
06:34 37.8 °F /  3.2 °C 36.5 °F /  2.5 °C 29.80in /  1009hPa ESE 5.0mph /  8km/h 5.0mph /  8km/h 95% 0.00in /  0mm 0.00 W/m2
06:39 37.9 °F /  3.3 °C 36.6 °F /  2.6 °C 29.79in /  1008.7hPa ESE 5.0mph /  8km/h 7.0mph /  11.3km/h 95% 0.00in /  0mm 0.00 W/m2
06:44 38.0 °F /  3.3 °C 36.7 °F /  2.6 °C 29.79in /  1008.7hPa ESE 5.0mph /  8km/h 7.0mph /  11.3km/h 95% 0.00in /  0mm 0.00 W/m2
06:49 37.9 °F /  3.3 °C 36.6 °F /  2.6 °C 29.79in /  1008.7hPa SE 7.0mph /  11.3km/h 9.0mph /  14.5km/h 95% 0.00in /  0mm 0.00 W/m2
06:54 37.8 °F /  3.2 °C 36.5 °F /  2.5 °C 29.80in /  1009hPa NE 1.0mph /  1.6km/h 9.0mph /  14.5km/h 95% 0.00in /  0mm 0.00 W/m2
06:59 37.8 °F /  3.2 °C 36.5 °F /  2.5 °C 29.79in /  1008.7hPa NE 1.0mph /  1.6km/h 9.0mph /  14.5km/h 95% 0.00in /  0mm 0.00 W/m2
07:04 37.8 °F /  3.2 °C 36.5 °F /  2.5 °C 29.79in /  1008.7hPa NE 1.0mph /  1.6km/h 9.0mph /  14.5km/h 95% 0.00in /  0mm 0.00 W/m2
07:09 37.6 °F /  3.1 °C 36.3 °F /  2.4 °C 29.79in /  1008.7hPa East 8.0mph /  12.9km/h 8.0mph /  12.9km/h 95% 0.00in /  0mm 0.00 W/m2
07:14 37.4 °F /  3 °C 36.1 °F /  2.3 °C 29.79in /  1008.7hPa ESE 7.0mph /  11.3km/h 9.0mph /  14.5km/h 95% 0.00in /  0mm 0.00 W/m2
07:19 37.5 °F /  3.1 °C 36.2 °F /  2.3 °C 29.79in /  1008.7hPa East 5.0mph /  8km/h 9.0mph /  14.5km/h 95% 0.00in /  0mm 0.00 W/m2
07:24 37.7 °F /  3.2 °C 36.4 °F /  2.4 °C 29.79in /  1008.7hPa East 5.0mph /  8km/h 8.0mph /  12.9km/h 95% 0.00in /  0mm 0.00 W/m2
07:29 37.7 °F /  3.2 °C 36.4 °F /  2.4 °C 29.79in /  1008.7hPa East 5.0mph /  8km/h 7.0mph /  11.3km/h 95% 0.00in /  0mm 5.00 W/m2
07:34 37.6 °F /  3.1 °C 36.3 °F /  2.4 °C 29.80in /  1009hPa ESE 7.0mph /  11.3km/h 7.0mph /  11.3km/h 95% 0.00in /  0mm 7.00 W/m2
07:39 37.6 °F /  3.1 °C 36.3 °F /  2.4 °C 29.79in /  1008.7hPa ESE 4.0mph /  6.4km/h 7.0mph /  11.3km/h 95% 0.00in /  0mm 12.00 W/m2
07:44 37.6 °F /  3.1 °C 36.3 °F /  2.4 °C 29.80in /  1009hPa SE 1.0mph /  1.6km/h 8.0mph /  12.9km/h 95% 0.00in /  0mm 18.00 W/m2
07:49 37.6 °F /  3.1 °C 36.3 °F /  2.4 °C 29.80in /  1009hPa East 3.0mph /  4.8km/h 8.0mph /  12.9km/h 95% 0.00in /  0mm 23.00 W/m2
07:54 37.6 °F /  3.1 °C 36.3 °F /  2.4 °C 29.80in /  1009hPa NE 2.0mph /  3.2km/h 6.0mph /  9.7km/h 95% 0.00in /  0mm 26.00 W/m2
07:59 37.5 °F /  3.1 °C 36.2 °F /  2.3 °C 29.80in /  1009hPa ENE 4.0mph /  6.4km/h 6.0mph /  9.7km/h 95% 0.00in /  0mm 35.00 W/m2
08:04 37.6 °F /  3.1 °C 36.3 °F /  2.4 °C 29.80in /  1009hPa ENE 3.0mph /  4.8km/h 4.0mph /  6.4km/h 95% 0.00in /  0mm 44.00 W/m2
08:09 37.7 °F /  3.2 °C 36.4 °F /  2.4 °C 29.81in /  1009.4hPa NE 4.0mph /  6.4km/h 5.0mph /  8km/h 95% 0.00in /  0mm 53.00 W/m2
08:14 37.8 °F /  3.2 °C 36.5 °F /  2.5 °C 29.80in /  1009hPa NE 5.0mph /  8km/h 6.0mph /  9.7km/h 95% 0.00in /  0mm 63.00 W/m2
08:19 38.0 °F /  3.3 °C 36.7 °F /  2.6 °C 29.80in /  1009hPa NE 4.0mph /  6.4km/h 6.0mph /  9.7km/h 95% 0.00in /  0mm 67.00 W/m2
08:24 38.4 °F /  3.6 °C 37.4 °F /  3 °C 29.80in /  1009hPa ENE 3.0mph /  4.8km/h 6.0mph /  9.7km/h 96% 0.00in /  0mm 114.00 W/m2
08:29 38.6 °F /  3.7 °C 37.6 °F /  3.1 °C 29.81in /  1009.4hPa ENE 5.0mph /  8km/h 7.0mph /  11.3km/h 96% 0.00in /  0mm 54.00 W/m2
08:34 38.7 °F /  3.7 °C 37.4 °F /  3 °C 29.81in /  1009.4hPa ENE 4.0mph /  6.4km/h 7.0mph /  11.3km/h 95% 0.00in /  0mm 77.00 W/m2
08:39 39.0 °F /  3.9 °C 38.0 °F /  3.3 °C 29.81in /  1009.4hPa ENE 3.0mph /  4.8km/h 7.0mph /  11.3km/h 96% 0.00in /  0mm 160.00 W/m2
08:44 39.5 °F /  4.2 °C 38.5 °F /  3.6 °C 29.81in /  1009.4hPa ENE 2.0mph /  3.2km/h 5.0mph /  8km/h 96% 0.00in /  0mm 160.00 W/m2
08:49 40.0 °F /  4.4 °C 39.0 °F /  3.9 °C 29.81in /  1009.4hPa ENE 4.0mph /  6.4km/h 7.0mph /  11.3km/h 96% 0.00in /  0mm 207.00 W/m2
08:54 40.6 °F /  4.8 °C 39.5 °F /  4.2 °C 29.81in /  1009.4hPa ENE 2.0mph /  3.2km/h 7.0mph /  11.3km/h 96% 0.00in /  0mm 213.00 W/m2
08:59 41.3 °F /  5.2 °C 40.2 °F /  4.6 °C 29.81in /  1009.4hPa ENE 1.0mph /  1.6km/h 4.0mph /  6.4km/h 96% 0.00in /  0mm 121.00 W/m2
09:04 41.6 °F /  5.3 °C 40.3 °F /  4.6 °C 29.81in /  1009.4hPa ENE 3.0mph /  4.8km/h 4.0mph /  6.4km/h 95% 0.00in /  0mm 121.00 W/m2
09:09 41.8 °F /  5.4 °C 40.5 °F /  4.7 °C 29.82in /  1009.7hPa ENE 3.0mph /  4.8km/h 5.0mph /  8km/h 95% 0.00in /  0mm 160.00 W/m2
09:14 42.2 °F /  5.7 °C 40.9 °F /  4.9 °C 29.82in /  1009.7hPa NE 3.0mph /  4.8km/h 5.0mph /  8km/h 95% 0.00in /  0mm 190.00 W/m2
09:19 43.1 °F /  6.2 °C 41.8 °F /  5.4 °C 29.82in /  1009.7hPa NE 4.0mph /  6.4km/h 5.0mph /  8km/h 95% 0.00in /  0mm 306.00 W/m2
09:24 43.8 °F /  6.6 °C 42.5 °F /  5.8 °C 29.81in /  1009.4hPa NE 5.0mph /  8km/h 8.0mph /  12.9km/h 95% 0.00in /  0mm 271.00 W/m2
09:29 44.0 °F /  6.7 °C 42.4 °F /  5.8 °C 29.81in /  1009.4hPa NE 7.0mph /  11.3km/h 8.0mph /  12.9km/h 94% 0.00in /  0mm 165.00 W/m2
09:34 44.2 °F /  6.8 °C 42.3 °F /  5.7 °C 29.82in /  1009.7hPa NNE 4.0mph /  6.4km/h 7.0mph /  11.3km/h 93% 0.00in /  0mm 232.00 W/m2
09:39 45.0 °F /  7.2 °C 43.1 °F /  6.2 °C 29.82in /  1009.7hPa Calm   7.0mph /  11.3km/h 93% 0.00in /  0mm 320.00 W/m2
09:44 45.6 °F /  7.6 °C 43.4 °F /  6.3 °C 29.82in /  1009.7hPa NE 1.0mph /  1.6km/h 5.0mph /  8km/h 92% 0.00in /  0mm 306.00 W/m2
09:49 46.4 °F /  8 °C 43.9 °F /  6.6 °C 29.82in /  1009.7hPa Calm   3.0mph /  4.8km/h 91% 0.00in /  0mm 332.00 W/m2
09:54 47.1 °F /  8.4 °C 44.0 °F /  6.7 °C 29.82in /  1009.7hPa South 2.0mph /  3.2km/h 3.0mph /  4.8km/h 89% 0.00in /  0mm 301.00 W/m2
09:59 47.5 °F /  8.6 °C 43.8 °F /  6.6 °C 29.82in /  1009.7hPa NE 2.0mph /  3.2km/h 6.0mph /  9.7km/h 87% 0.00in /  0mm 299.00 W/m2
10:04 47.9 °F /  8.8 °C 43.9 °F /  6.6 °C 29.82in /  1009.7hPa Calm   6.0mph /  9.7km/h 86% 0.00in /  0mm 357.00 W/m2
10:09 48.4 °F /  9.1 °C 44.4 °F /  6.9 °C 29.82in /  1009.7hPa NE 5.0mph /  8km/h 7.0mph /  11.3km/h 86% 0.00in /  0mm 322.00 W/m2
10:14 48.5 °F /  9.2 °C 43.6 °F /  6.4 °C 29.82in /  1009.7hPa ENE 10.0mph /  16.1km/h 11.0mph /  17.7km/h 83% 0.00in /  0mm 276.00 W/m2
10:19 48.3 °F /  9.1 °C 43.4 °F /  6.3 °C 29.82in /  1009.7hPa ENE 2.0mph /  3.2km/h 11.0mph /  17.7km/h 83% 0.00in /  0mm 306.00 W/m2
10:24 48.7 °F /  9.3 °C 44.1 °F /  6.7 °C 29.82in /  1009.7hPa ENE 4.0mph /  6.4km/h 10.0mph /  16.1km/h 84% 0.00in /  0mm 318.00 W/m2
10:29 49.2 °F /  9.6 °C 43.9 °F /  6.6 °C 29.83in /  1010hPa NE 5.0mph /  8km/h 8.0mph /  12.9km/h 82% 0.00in /  0mm 376.00 W/m2
10:34 49.7 °F /  9.8 °C 44.1 °F /  6.7 °C 29.83in /  1010hPa ESE 3.0mph /  4.8km/h 8.0mph /  12.9km/h 81% 0.00in /  0mm 408.00 W/m2
10:39 49.6 °F /  9.8 °C 43.4 °F /  6.3 °C 29.83in /  1010hPa East 7.0mph /  11.3km/h 9.0mph /  14.5km/h 79% 0.00in /  0mm 439.00 W/m2
10:44 49.5 °F /  9.7 °C 43.3 °F /  6.3 °C 29.83in /  1010hPa ENE 3.0mph /  4.8km/h 9.0mph /  14.5km/h 79% 0.00in /  0mm 420.00 W/m2
10:49 49.8 °F /  9.9 °C 43.2 °F /  6.2 °C 29.84in /  1010.4hPa ENE 8.0mph /  12.9km/h 9.0mph /  14.5km/h 78% 0.00in /  0mm 371.00 W/m2
10:54 49.5 °F /  9.7 °C 42.6 °F /  5.9 °C 29.83in /  1010hPa ENE 8.0mph /  12.9km/h 10.0mph /  16.1km/h 77% 0.00in /  0mm 292.00 W/m2
10:59 49.2 °F /  9.6 °C 42.6 °F /  5.9 °C 29.84in /  1010.4hPa East 7.0mph /  11.3km/h 10.0mph /  16.1km/h 78% 0.00in /  0mm 274.00 W/m2
11:04 48.9 °F /  9.4 °C 42.3 °F /  5.7 °C 29.84in /  1010.4hPa East 2.0mph /  3.2km/h 8.0mph /  12.9km/h 78% 0.00in /  0mm 292.00 W/m2
11:09 48.7 °F /  9.3 °C 42.1 °F /  5.6 °C 29.84in /  1010.4hPa East 7.0mph /  11.3km/h 9.0mph /  14.5km/h 78% 0.00in /  0mm 290.00 W/m2
11:14 48.6 °F /  9.2 °C 42.4 °F /  5.8 °C 29.84in /  1010.4hPa East 6.0mph /  9.7km/h 9.0mph /  14.5km/h 79% 0.00in /  0mm 338.00 W/m2
11:19 48.8 °F /  9.3 °C 42.6 °F /  5.9 °C 29.84in /  1010.4hPa ENE 5.0mph /  8km/h 10.0mph /  16.1km/h 79% 0.00in /  0mm 378.00 W/m2
11:24 49.1 °F /  9.5 °C 42.9 °F /  6.1 °C 29.83in /  1010hPa NE 8.0mph /  12.9km/h 10.0mph /  16.1km/h 79% 0.00in /  0mm 443.00 W/m2
11:29 49.6 °F /  9.8 °C 43.0 °F /  6.1 °C 29.83in /  1010hPa NE 8.0mph /  12.9km/h 11.0mph /  17.7km/h 78% 0.00in /  0mm 408.00 W/m2
11:34 49.7 °F /  9.8 °C 43.1 °F /  6.2 °C 29.83in /  1010hPa NE 8.0mph /  12.9km/h 11.0mph /  17.7km/h 78% 0.00in /  0mm 439.00 W/m2
11:39 49.9 °F /  9.9 °C 43.0 °F /  6.1 °C 29.83in /  1010hPa ENE 5.0mph /  8km/h 12.0mph /  19.3km/h 77% 0.00in /  0mm 366.00 W/m2
11:44 50.2 °F /  10.1 °C 43.3 °F /  6.3 °C 29.83in /  1010hPa NE 7.0mph /  11.3km/h 12.0mph /  19.3km/h 77% 0.00in /  0mm 408.00 W/m2
11:49 50.6 °F /  10.3 °C 43.7 °F /  6.5 °C 29.83in /  1010hPa ENE 7.0mph /  11.3km/h 10.0mph /  16.1km/h 77% 0.00in /  0mm 417.00 W/m2
11:54 50.8 °F /  10.4 °C 43.5 °F /  6.4 °C 29.83in /  1010hPa ENE 11.0mph /  17.7km/h 13.0mph /  20.9km/h 76% 0.00in /  0mm 420.00 W/m2
11:59 51.1 °F /  10.6 °C 43.8 °F /  6.6 °C 29.83in /  1010hPa NE 7.0mph /  11.3km/h 13.0mph /  20.9km/h 76% 0.00in /  0mm 441.00 W/m2
12:04 51.4 °F /  10.8 °C 43.7 °F /  6.5 °C 29.83in /  1010hPa ENE 11.0mph /  17.7km/h 12.0mph /  19.3km/h 75% 0.00in /  0mm 452.00 W/m2
12:09 51.8 °F /  11 °C 44.1 °F /  6.7 °C 29.83in /  1010hPa North 5.0mph /  8km/h 12.0mph /  19.3km/h 75% 0.00in /  0mm 446.00 W/m2
12:14 52.1 °F /  11.2 °C 43.3 °F /  6.3 °C 29.83in /  1010hPa NE 9.0mph /  14.5km/h 14.0mph /  22.5km/h 72% 0.00in /  0mm 462.00 W/m2
12:19 52.2 °F /  11.2 °C 43.4 °F /  6.3 °C 29.84in /  1010.4hPa NE 7.0mph /  11.3km/h 14.0mph /  22.5km/h 72% 0.00in /  0mm 471.00 W/m2
12:24 52.3 °F /  11.3 °C 42.8 °F /  6 °C 29.84in /  1010.4hPa NE 7.0mph /  11.3km/h 14.0mph /  22.5km/h 70% 0.00in /  0mm 506.00 W/m2
12:29 52.1 °F /  11.2 °C 42.6 °F /  5.9 °C 29.84in /  1010.4hPa ENE 8.0mph /  12.9km/h 13.0mph /  20.9km/h 70% 0.00in /  0mm 446.00 W/m2
12:34 52.0 °F /  11.1 °C 42.5 °F /  5.8 °C 29.84in /  1010.4hPa East 13.0mph /  20.9km/h 13.0mph /  20.9km/h 70% 0.00in /  0mm 369.00 W/m2
12:39 51.8 °F /  11 °C 42.3 °F /  5.7 °C 29.84in /  1010.4hPa ENE 8.0mph /  12.9km/h 14.0mph /  22.5km/h 70% 0.00in /  0mm 374.00 W/m2
12:44 52.1 °F /  11.2 °C 42.2 °F /  5.7 °C 29.84in /  1010.4hPa ENE 8.0mph /  12.9km/h 14.0mph /  22.5km/h 69% 0.00in /  0mm 411.00 W/m2
12:49 52.0 °F /  11.1 °C 42.1 °F /  5.6 °C 29.84in /  1010.4hPa NE 12.0mph /  19.3km/h 14.0mph /  22.5km/h 69% 0.00in /  0mm 461.00 W/m2
12:54 52.5 °F /  11.4 °C 42.2 °F /  5.7 °C 29.84in /  1010.4hPa ENE 11.0mph /  17.7km/h 16.0mph /  25.7km/h 68% 0.00in /  0mm 654.00 W/m2
12:59 52.8 °F /  11.6 °C 42.5 °F /  5.8 °C 29.84in /  1010.4hPa NE 10.0mph /  16.1km/h 16.0mph /  25.7km/h 68% 0.00in /  0mm 638.00 W/m2
13:04 53.2 °F /  11.8 °C 42.9 °F /  6.1 °C 29.83in /  1010hPa NE 10.0mph /  16.1km/h 15.0mph /  24.1km/h 68% 0.00in /  0mm 584.00 W/m2
13:09 53.3 °F /  11.8 °C 42.6 °F /  5.9 °C 29.83in /  1010hPa ENE 10.0mph /  16.1km/h 16.0mph /  25.7km/h 67% 0.00in /  0mm 515.00 W/m2
13:14 52.9 °F /  11.6 °C 42.2 °F /  5.7 °C 29.83in /  1010hPa ENE 9.0mph /  14.5km/h 16.0mph /  25.7km/h 67% 0.00in /  0mm 489.00 W/m2
13:19 52.5 °F /  11.4 °C 42.2 °F /  5.7 °C 29.83in /  1010hPa NE 9.0mph /  14.5km/h 14.0mph /  22.5km/h 68% 0.00in /  0mm 566.00 W/m2
13:24 52.7 °F /  11.5 °C 42.4 °F /  5.8 °C 29.82in /  1009.7hPa NE 9.0mph /  14.5km/h 15.0mph /  24.1km/h 68% 0.00in /  0mm 584.00 W/m2
13:29 52.6 °F /  11.4 °C 42.7 °F /  5.9 °C 29.83in /  1010hPa NNE 11.0mph /  17.7km/h 15.0mph /  24.1km/h 69% 0.00in /  0mm 640.00 W/m2
13:34 52.8 °F /  11.6 °C 42.1 °F /  5.6 °C 29.83in /  1010hPa NE 13.0mph /  20.9km/h 15.0mph /  24.1km/h 67% 0.00in /  0mm 550.00 W/m2
13:39 52.4 °F /  11.3 °C 41.8 °F /  5.4 °C 29.82in /  1009.7hPa ENE 8.0mph /  12.9km/h 15.0mph /  24.1km/h 67% 0.00in /  0mm 515.00 W/m2
13:44 52.1 °F /  11.2 °C 41.9 °F /  5.5 °C 29.82in /  1009.7hPa NE 9.0mph /  14.5km/h 15.0mph /  24.1km/h 68% 0.00in /  0mm 513.00 W/m2
13:49 52.2 °F /  11.2 °C 42.0 °F /  5.6 °C 29.82in /  1009.7hPa ENE 11.0mph /  17.7km/h 15.0mph /  24.1km/h 68% 0.00in /  0mm 524.00 W/m2
13:54 52.4 °F /  11.3 °C 42.5 °F /  5.8 °C 29.82in /  1009.7hPa ENE 11.0mph /  17.7km/h 14.0mph /  22.5km/h 69% 0.00in /  0mm 617.00 W/m2
13:59 52.5 °F /  11.4 °C 42.6 °F /  5.9 °C 29.83in /  1010hPa NE 10.0mph /  16.1km/h 15.0mph /  24.1km/h 69% 0.00in /  0mm 422.00 W/m2
14:04 52.4 °F /  11.3 °C 42.5 °F /  5.8 °C 29.82in /  1009.7hPa NE 10.0mph /  16.1km/h 15.0mph /  24.1km/h 69% 0.00in /  0mm 478.00 W/m2
14:09 52.3 °F /  11.3 °C 42.0 °F /  5.6 °C 29.83in /  1010hPa NE 11.0mph /  17.7km/h 14.0mph /  22.5km/h 68% 0.00in /  0mm 364.00 W/m2
14:14 51.9 °F /  11.1 °C 41.3 °F /  5.2 °C 29.83in /  1010hPa ENE 9.0mph /  14.5km/h 14.0mph /  22.5km/h 67% 0.00in /  0mm 422.00 W/m2
14:19 51.6 °F /  10.9 °C 41.4 °F /  5.2 °C 29.83in /  1010hPa East 6.0mph /  9.7km/h 14.0mph /  22.5km/h 68% 0.00in /  0mm 299.00 W/m2
14:24 51.4 °F /  10.8 °C 41.2 °F /  5.1 °C 29.82in /  1009.7hPa NE 9.0mph /  14.5km/h 14.0mph /  22.5km/h 68% 0.00in /  0mm 281.00 W/m2
14:29 51.4 °F /  10.8 °C 41.6 °F /  5.3 °C 29.83in /  1010hPa NNE 6.0mph /  9.7km/h 14.0mph /  22.5km/h 69% 0.00in /  0mm 355.00 W/m2
14:34 51.8 °F /  11 °C 41.9 °F /  5.5 °C 29.83in /  1010hPa NNE 8.0mph /  12.9km/h 14.0mph /  22.5km/h 69% 0.00in /  0mm 415.00 W/m2
14:39 51.9 °F /  11.1 °C 41.7 °F /  5.4 °C 29.82in /  1009.7hPa NE 14.0mph /  22.5km/h 16.0mph /  25.7km/h 68% 0.00in /  0mm 385.00 W/m2
14:44 51.6 °F /  10.9 °C 41.4 °F /  5.2 °C 29.82in /  1009.7hPa NE 12.0mph /  19.3km/h 16.0mph /  25.7km/h 68% 0.00in /  0mm 308.00 W/m2
14:49 51.4 °F /  10.8 °C 41.2 °F /  5.1 °C 29.82in /  1009.7hPa ENE 8.0mph /  12.9km/h 16.0mph /  25.7km/h 68% 0.00in /  0mm 257.00 W/m2
14:54 51.2 °F /  10.7 °C 41.0 °F /  5 °C 29.82in /  1009.7hPa ENE 13.0mph /  20.9km/h 16.0mph /  25.7km/h 68% 0.00in /  0mm 230.00 W/m2
14:59 51.0 °F /  10.6 °C 40.8 °F /  4.9 °C 29.82in /  1009.7hPa NE 9.0mph /  14.5km/h 15.0mph /  24.1km/h 68% 0.00in /  0mm 229.00 W/m2
15:04 50.9 °F /  10.5 °C 41.1 °F /  5.1 °C 29.82in /  1009.7hPa NE 10.0mph /  16.1km/h 15.0mph /  24.1km/h 69% 0.00in /  0mm 193.00 W/m2
15:09 50.7 °F /  10.4 °C 40.9 °F /  4.9 °C 29.82in /  1009.7hPa NE 11.0mph /  17.7km/h 13.0mph /  20.9km/h 69% 0.00in /  0mm 171.00 W/m2
15:14 50.4 °F /  10.2 °C 40.6 °F /  4.8 °C 29.82in /  1009.7hPa East 6.0mph /  9.7km/h 15.0mph /  24.1km/h 69% 0.00in /  0mm 176.00 W/m2
15:19 50.2 °F /  10.1 °C 40.8 °F /  4.9 °C 29.82in /  1009.7hPa NE 6.0mph /  9.7km/h 15.0mph /  24.1km/h 70% 0.00in /  0mm 206.00 W/m2
15:24 49.9 °F /  9.9 °C 40.5 °F /  4.7 °C 29.82in /  1009.7hPa ENE 15.0mph /  24.1km/h 17.0mph /  27.4km/h 70% 0.00in /  0mm 234.00 W/m2
15:29 49.6 °F /  9.8 °C 40.6 °F /  4.8 °C 29.82in /  1009.7hPa NE 12.0mph /  19.3km/h 17.0mph /  27.4km/h 71% 0.00in /  0mm 306.00 W/m2
15:34 49.6 °F /  9.8 °C 40.9 °F /  4.9 °C 29.81in /  1009.4hPa NE 11.0mph /  17.7km/h 18.0mph /  29km/h 72% 0.00in /  0mm 323.00 W/m2
15:39 49.5 °F /  9.7 °C 40.5 °F /  4.7 °C 29.81in /  1009.4hPa ENE 14.0mph /  22.5km/h 18.0mph /  29km/h 71% 0.00in /  0mm 385.00 W/m2
15:44 49.2 °F /  9.6 °C 40.2 °F /  4.6 °C 29.81in /  1009.4hPa NE 14.0mph /  22.5km/h 17.0mph /  27.4km/h 71% 0.00in /  0mm 334.00 W/m2
15:49 49.1 °F /  9.5 °C 40.1 °F /  4.5 °C 29.81in /  1009.4hPa ENE 14.0mph /  22.5km/h 17.0mph /  27.4km/h 71% 0.00in /  0mm 346.00 W/m2
15:54 49.6 °F /  9.8 °C 40.9 °F /  4.9 °C 29.81in /  1009.4hPa East 7.0mph /  11.3km/h 17.0mph /  27.4km/h 72% 0.00in /  0mm 325.00 W/m2
15:59 49.7 °F /  9.8 °C 40.7 °F /  4.8 °C 29.82in /  1009.7hPa East 13.0mph /  20.9km/h 15.0mph /  24.1km/h 71% 0.00in /  0mm 297.00 W/m2
16:04 49.5 °F /  9.7 °C 40.5 °F /  4.7 °C 29.82in /  1009.7hPa ENE 11.0mph /  17.7km/h 15.0mph /  24.1km/h 71% 0.00in /  0mm 285.00 W/m2
16:09 49.5 °F /  9.7 °C 40.5 °F /  4.7 °C 29.82in /  1009.7hPa East 8.0mph /  12.9km/h 15.0mph /  24.1km/h 71% 0.00in /  0mm 299.00 W/m2
16:14 49.6 °F /  9.8 °C 40.9 °F /  4.9 °C 29.82in /  1009.7hPa NE 8.0mph /  12.9km/h 14.0mph /  22.5km/h 72% 0.00in /  0mm 274.00 W/m2
16:19 49.4 °F /  9.7 °C 40.4 °F /  4.7 °C 29.81in /  1009.4hPa ENE 12.0mph /  19.3km/h 17.0mph /  27.4km/h 71% 0.00in /  0mm 265.00 W/m2
16:24 49.1 °F /  9.5 °C 40.8 °F /  4.9 °C 29.81in /  1009.4hPa NE 9.0mph /  14.5km/h 17.0mph /  27.4km/h 73% 0.00in /  0mm 264.00 W/m2
16:29 49.0 °F /  9.4 °C 40.7 °F /  4.8 °C 29.80in /  1009hPa East 10.0mph /  16.1km/h 18.0mph /  29km/h 73% 0.00in /  0mm 315.00 W/m2
16:34 49.2 °F /  9.6 °C 40.9 °F /  4.9 °C 29.81in /  1009.4hPa NE 8.0mph /  12.9km/h 20.0mph /  32.2km/h 73% 0.00in /  0mm 580.00 W/m2
16:39 49.5 °F /  9.7 °C 40.8 °F /  4.9 °C 29.81in /  1009.4hPa NE 14.0mph /  22.5km/h 21.0mph /  33.8km/h 72% 0.00in /  0mm 359.00 W/m2
16:44 49.4 °F /  9.7 °C 40.7 °F /  4.8 °C 29.82in /  1009.7hPa NE 8.0mph /  12.9km/h 21.0mph /  33.8km/h 72% 0.00in /  0mm 392.00 W/m2
16:49 48.8 °F /  9.3 °C 40.5 °F /  4.7 °C 29.82in /  1009.7hPa ENE 11.0mph /  17.7km/h 17.0mph /  27.4km/h 73% 0.00in /  0mm 246.00 W/m2
16:54 48.3 °F /  9.1 °C 40.4 °F /  4.7 °C 29.83in /  1010hPa ENE 8.0mph /  12.9km/h 16.0mph /  25.7km/h 74% 0.00in /  0mm 229.00 W/m2
16:59 48.1 °F /  8.9 °C 40.2 °F /  4.6 °C 29.83in /  1010hPa East 13.0mph /  20.9km/h 17.0mph /  27.4km/h 74% 0.00in /  0mm 366.00 W/m2
17:04 47.7 °F /  8.7 °C 39.8 °F /  4.3 °C 29.83in /  1010hPa ESE 10.0mph /  16.1km/h 19.0mph /  30.6km/h 74% 0.00in /  0mm 292.00 W/m2
17:09 47.3 °F /  8.5 °C 39.8 °F /  4.3 °C 29.82in /  1009.7hPa East 16.0mph /  25.7km/h 19.0mph /  30.6km/h 75% 0.00in /  0mm 348.00 W/m2
17:14 47.0 °F /  8.3 °C 39.8 °F /  4.3 °C 29.83in /  1010hPa NE 9.0mph /  14.5km/h 21.0mph /  33.8km/h 76% 0.00in /  0mm 316.00 W/m2
17:19 47.0 °F /  8.3 °C 40.2 °F /  4.6 °C 29.83in /  1010hPa ENE 13.0mph /  20.9km/h 21.0mph /  33.8km/h 77% 0.00in /  0mm 295.00 W/m2
17:24 46.9 °F /  8.3 °C 39.7 °F /  4.3 °C 29.82in /  1009.7hPa ENE 14.0mph /  22.5km/h 18.0mph /  29km/h 76% 0.00in /  0mm 278.00 W/m2
17:29 46.7 °F /  8.2 °C 40.2 °F /  4.6 °C 29.83in /  1010hPa ENE 10.0mph /  16.1km/h 17.0mph /  27.4km/h 78% 0.00in /  0mm 262.00 W/m2
17:34 46.7 °F /  8.2 °C 40.2 °F /  4.6 °C 29.83in /  1010hPa ENE 7.0mph /  11.3km/h 19.0mph /  30.6km/h 78% 0.00in /  0mm 292.00 W/m2
17:39 46.8 °F /  8.2 °C 40.3 °F /  4.6 °C 29.82in /  1009.7hPa East 13.0mph /  20.9km/h 19.0mph /  30.6km/h 78% 0.00in /  0mm 202.00 W/m2
17:44 46.8 °F /  8.2 °C 40.3 °F /  4.6 °C 29.82in /  1009.7hPa ENE 14.0mph /  22.5km/h 19.0mph /  30.6km/h 78% 0.00in /  0mm 183.00 W/m2
17:49 46.8 °F /  8.2 °C 40.6 °F /  4.8 °C 29.82in /  1009.7hPa East 13.0mph /  20.9km/h 19.0mph /  30.6km/h 79% 0.00in /  0mm 385.00 W/m2
17:54 47.3 °F /  8.5 °C 40.8 °F /  4.9 °C 29.82in /  1009.7hPa East 10.0mph /  16.1km/h 19.0mph /  30.6km/h 78% 0.00in /  0mm 334.00 W/m2
17:59 47.6 °F /  8.7 °C 41.1 °F /  5.1 °C 29.83in /  1010hPa NE 13.0mph /  20.9km/h 19.0mph /  30.6km/h 78% 0.00in /  0mm 420.00 W/m2
18:04 48.2 °F /  9 °C 41.3 °F /  5.2 °C 29.82in /  1009.7hPa ENE 8.0mph /  12.9km/h 20.0mph /  32.2km/h 77% 0.00in /  0mm 381.00 W/m2
18:09 47.9 °F /  8.8 °C 40.4 °F /  4.7 °C 29.82in /  1009.7hPa ENE 16.0mph /  25.7km/h 20.0mph /  32.2km/h 75% 0.00in /  0mm 142.00 W/m2
18:14 47.5 °F /  8.6 °C 40.6 °F /  4.8 °C 29.82in /  1009.7hPa East 16.0mph /  25.7km/h 19.0mph /  30.6km/h 77% 0.00in /  0mm 313.00 W/m2
18:19 47.3 °F /  8.5 °C 40.5 °F /  4.7 °C 29.82in /  1009.7hPa ENE 17.0mph /  27.4km/h 19.0mph /  30.6km/h 77% 0.00in /  0mm 204.00 W/m2
18:24 46.6 °F /  8.1 °C 40.1 °F /  4.5 °C 29.83in /  1010hPa East 14.0mph /  22.5km/h 19.0mph /  30.6km/h 78% 0.00in /  0mm 137.00 W/m2
18:29 46.2 °F /  7.9 °C 40.0 °F /  4.4 °C 29.83in /  1010hPa ENE 18.0mph /  29km/h 19.0mph /  30.6km/h 79% 0.00in /  0mm 160.00 W/m2
18:34 45.7 °F /  7.6 °C 39.9 °F /  4.4 °C 29.83in /  1010hPa East 14.0mph /  22.5km/h 20.0mph /  32.2km/h 80% 0.00in /  0mm 120.00 W/m2
18:39 45.6 °F /  7.6 °C 39.8 °F /  4.3 °C 29.84in /  1010.4hPa East 9.0mph /  14.5km/h 20.0mph /  32.2km/h 80% 0.00in /  0mm 135.00 W/m2
18:44 45.5 °F /  7.5 °C 40.0 °F /  4.4 °C 29.84in /  1010.4hPa East 11.0mph /  17.7km/h 16.0mph /  25.7km/h 81% 0.00in /  0mm 95.00 W/m2
18:49 45.2 °F /  7.3 °C 39.7 °F /  4.3 °C 29.84in /  1010.4hPa East 14.0mph /  22.5km/h 19.0mph /  30.6km/h 81% 0.00in /  0mm 95.00 W/m2
18:54 45.0 °F /  7.2 °C 39.8 °F /  4.3 °C 29.84in /  1010.4hPa East 14.0mph /  22.5km/h 19.0mph /  30.6km/h 82% 0.00in /  0mm 88.00 W/m2
18:59 44.7 °F /  7.1 °C 39.5 °F /  4.2 °C 29.84in /  1010.4hPa East 15.0mph /  24.1km/h 18.0mph /  29km/h 82% 0.00in /  0mm 70.00 W/m2
19:04 44.3 °F /  6.8 °C 39.2 °F /  4 °C 29.84in /  1010.4hPa ESE 13.0mph /  20.9km/h 20.0mph /  32.2km/h 82% 0.00in /  0mm 54.00 W/m2
19:09 43.9 °F /  6.6 °C 39.1 °F /  3.9 °C 29.84in /  1010.4hPa East 17.0mph /  27.4km/h 23.0mph /  37km/h 83% 0.00in /  0mm 47.00 W/m2
19:14 43.5 °F /  6.4 °C 39.0 °F /  3.9 °C 29.84in /  1010.4hPa ENE 8.0mph /  12.9km/h 23.0mph /  37km/h 84% 0.00in /  0mm 47.00 W/m2
19:19 43.4 °F /  6.3 °C 38.9 °F /  3.8 °C 29.84in /  1010.4hPa ENE 8.0mph /  12.9km/h 23.0mph /  37km/h 84% 0.00in /  0mm 40.00 W/m2
19:24 43.1 °F /  6.2 °C 38.6 °F /  3.7 °C 29.84in /  1010.4hPa ENE 8.0mph /  12.9km/h 23.0mph /  37km/h 84% 0.00in /  0mm 33.00 W/m2
19:29 42.6 °F /  5.9 °C 38.1 °F /  3.4 °C 29.84in /  1010.4hPa ENE 16.0mph /  25.7km/h 19.0mph /  30.6km/h 84% 0.00in /  0mm 33.00 W/m2
19:34 42.3 °F /  5.7 °C 38.1 °F /  3.4 °C 29.84in /  1010.4hPa East 17.0mph /  27.4km/h 19.0mph /  30.6km/h 85% 0.00in /  0mm 28.00 W/m2
19:39 42.0 °F /  5.6 °C 38.1 °F /  3.4 °C 29.84in /  1010.4hPa East 17.0mph /  27.4km/h 18.0mph /  29km/h 86% 0.00in /  0mm 23.00 W/m2
19:44 41.7 °F /  5.4 °C 37.8 °F /  3.2 °C 29.84in /  1010.4hPa East 11.0mph /  17.7km/h 23.0mph /  37km/h 86% 0.00in /  0mm 21.00 W/m2
19:49 41.4 °F /  5.2 °C 37.8 °F /  3.2 °C 29.85in /  1010.7hPa ENE 12.0mph /  19.3km/h 23.0mph /  37km/h 87% 0.00in /  0mm 18.00 W/m2
19:54 41.3 °F /  5.2 °C 37.7 °F /  3.2 °C 29.84in /  1010.4hPa East 17.0mph /  27.4km/h 20.0mph /  32.2km/h 87% 0.00in /  0mm 12.00 W/m2
19:59 41.1 °F /  5.1 °C 37.8 °F /  3.2 °C 29.84in /  1010.4hPa NE 14.0mph /  22.5km/h 19.0mph /  30.6km/h 88% 0.00in /  0mm 11.00 W/m2
20:04 40.9 °F /  4.9 °C 37.6 °F /  3.1 °C 29.84in /  1010.4hPa ENE 12.0mph /  19.3km/h 19.0mph /  30.6km/h 88% 0.00in /  0mm 7.00 W/m2
20:09 40.7 °F /  4.8 °C 37.4 °F /  3 °C 29.84in /  1010.4hPa NE 6.0mph /  9.7km/h 19.0mph /  30.6km/h 88% 0.00in /  0mm 5.00 W/m2
20:14 40.5 °F /  4.7 °C 37.5 °F /  3.1 °C 29.84in /  1010.4hPa ENE 12.0mph /  19.3km/h 19.0mph /  30.6km/h 89% 0.00in /  0mm 0.00 W/m2
20:19 40.3 °F /  4.6 °C 37.3 °F /  2.9 °C 29.84in /  1010.4hPa ENE 12.0mph /  19.3km/h 19.0mph /  30.6km/h 89% 0.00in /  0mm 0.00 W/m2
20:24 40.1 °F /  4.5 °C 37.1 °F /  2.8 °C 29.84in /  1010.4hPa ENE 7.0mph /  11.3km/h 17.0mph /  27.4km/h 89% 0.00in /  0mm 0.00 W/m2
20:29 40.0 °F /  4.4 °C 37.0 °F /  2.8 °C 29.84in /  1010.4hPa ENE 9.0mph /  14.5km/h 17.0mph /  27.4km/h 89% 0.00in /  0mm 0.00 W/m2
20:34 39.9 °F /  4.4 °C 37.2 °F /  2.9 °C 29.84in /  1010.4hPa East 14.0mph /  22.5km/h 20.0mph /  32.2km/h 90% 0.00in /  0mm 0.00 W/m2
20:39 39.7 °F /  4.3 °C 37.0 °F /  2.8 °C 29.84in /  1010.4hPa East 9.0mph /  14.5km/h 20.0mph /  32.2km/h 90% 0.00in /  0mm 0.00 W/m2
20:44 39.6 °F /  4.2 °C 36.9 °F /  2.7 °C 29.84in /  1010.4hPa ENE 11.0mph /  17.7km/h 18.0mph /  29km/h 90% 0.00in /  0mm 0.00 W/m2
20:49 39.4 °F /  4.1 °C 37.0 °F /  2.8 °C 29.84in /  1010.4hPa NE 10.0mph /  16.1km/h 21.0mph /  33.8km/h 91% 0.00in /  0mm 0.00 W/m2
20:54 39.3 °F /  4.1 °C 36.9 °F /  2.7 °C 29.84in /  1010.4hPa ENE 10.0mph /  16.1km/h 22.0mph /  35.4km/h 91% 0.00in /  0mm 0.00 W/m2
20:59 39.2 °F /  4 °C 36.8 °F /  2.7 °C 29.85in /  1010.7hPa ENE 11.0mph /  17.7km/h 22.0mph /  35.4km/h 91% 0.00in /  0mm 0.00 W/m2
21:04 39.1 °F /  3.9 °C 36.7 °F /  2.6 °C 29.85in /  1010.7hPa East 11.0mph /  17.7km/h 19.0mph /  30.6km/h 91% 0.00in /  0mm 0.00 W/m2
21:09 39.1 °F /  3.9 °C 37.0 °F /  2.8 °C 29.86in /  1011.1hPa East 9.0mph /  14.5km/h 19.0mph /  30.6km/h 92% 0.00in /  0mm 0.00 W/m2
21:14 38.9 °F /  3.8 °C 36.8 °F /  2.7 °C 29.86in /  1011.1hPa ENE 10.0mph /  16.1km/h 15.0mph /  24.1km/h 92% 0.00in /  0mm 0.00 W/m2
21:19 38.8 °F /  3.8 °C 36.7 °F /  2.6 °C 29.86in /  1011.1hPa NE 10.0mph /  16.1km/h 16.0mph /  25.7km/h 92% 0.00in /  0mm 0.00 W/m2
21:24 38.7 °F /  3.7 °C 36.6 °F /  2.6 °C 29.86in /  1011.1hPa NE 14.0mph /  22.5km/h 16.0mph /  25.7km/h 92% 0.00in /  0mm 0.00 W/m2
21:29 38.7 °F /  3.7 °C 36.6 °F /  2.6 °C 29.86in /  1011.1hPa ENE 9.0mph /  14.5km/h 19.0mph /  30.6km/h 92% 0.00in /  0mm 0.00 W/m2
21:34 38.6 °F /  3.7 °C 36.8 °F /  2.7 °C 29.86in /  1011.1hPa East 16.0mph /  25.7km/h 20.0mph /  32.2km/h 93% 0.00in /  0mm 0.00 W/m2
21:39 38.4 °F /  3.6 °C 36.6 °F /  2.6 °C 29.86in /  1011.1hPa ENE 11.0mph /  17.7km/h 23.0mph /  37km/h 93% 0.00in /  0mm 0.00 W/m2
21:44 38.4 °F /  3.6 °C 36.6 °F /  2.6 °C 29.86in /  1011.1hPa ENE 13.0mph /  20.9km/h 23.0mph /  37km/h 93% 0.00in /  0mm 0.00 W/m2
21:49 38.3 °F /  3.5 °C 36.5 °F /  2.5 °C 29.86in /  1011.1hPa East 13.0mph /  20.9km/h 18.0mph /  29km/h 93% 0.00in /  0mm 0.00 W/m2
21:54 38.2 °F /  3.4 °C 36.4 °F /  2.4 °C 29.86in /  1011.1hPa ENE 13.0mph /  20.9km/h 18.0mph /  29km/h 93% 0.00in /  0mm 0.00 W/m2
21:59 38.2 °F /  3.4 °C 36.6 °F /  2.6 °C 29.86in /  1011.1hPa ENE 15.0mph /  24.1km/h 22.0mph /  35.4km/h 94% 0.00in /  0mm 0.00 W/m2
22:04 38.1 °F /  3.4 °C 36.5 °F /  2.5 °C 29.86in /  1011.1hPa ENE 16.0mph /  25.7km/h 22.0mph /  35.4km/h 94% 0.00in /  0mm 0.00 W/m2
22:09 38.0 °F /  3.3 °C 36.4 °F /  2.4 °C 29.86in /  1011.1hPa East 17.0mph /  27.4km/h 24.0mph /  38.6km/h 94% 0.00in /  0mm 0.00 W/m2
22:14 37.9 °F /  3.3 °C 36.3 °F /  2.4 °C 29.86in /  1011.1hPa East 11.0mph /  17.7km/h 24.0mph /  38.6km/h 94% 0.00in /  0mm 0.00 W/m2
22:19 37.8 °F /  3.2 °C 36.2 °F /  2.3 °C 29.85in /  1010.7hPa ENE 9.0mph /  14.5km/h 23.0mph /  37km/h 94% 0.00in /  0mm 0.00 W/m2
22:24 37.8 °F /  3.2 °C 36.2 °F /  2.3 °C 29.86in /  1011.1hPa East 19.0mph /  30.6km/h 23.0mph /  37km/h 94% 0.00in /  0mm 0.00 W/m2
22:29 37.8 °F /  3.2 °C 36.2 °F /  2.3 °C 29.86in /  1011.1hPa East 13.0mph /  20.9km/h 23.0mph /  37km/h 94% 0.00in /  0mm 0.00 W/m2
22:34 37.7 °F /  3.2 °C 36.4 °F /  2.4 °C 29.86in /  1011.1hPa East 11.0mph /  17.7km/h 20.0mph /  32.2km/h 95% 0.00in /  0mm 0.00 W/m2
22:39 37.6 °F /  3.1 °C 36.3 °F /  2.4 °C 29.86in /  1011.1hPa ENE 11.0mph /  17.7km/h 17.0mph /  27.4km/h 95% 0.00in /  0mm 0.00 W/m2
22:44 37.5 °F /  3.1 °C 35.9 °F /  2.2 °C 29.86in /  1011.1hPa ENE 12.0mph /  19.3km/h 18.0mph /  29km/h 94% 0.00in /  0mm 0.00 W/m2
22:49 37.4 °F /  3 °C 36.1 °F /  2.3 °C 29.86in /  1011.1hPa East 19.0mph /  30.6km/h 22.0mph /  35.4km/h 95% 0.00in /  0mm 0.00 W/m2
22:54 37.2 °F /  2.9 °C 35.9 °F /  2.2 °C 29.87in /  1011.4hPa East 24.0mph /  38.6km/h 24.0mph /  38.6km/h 95% 0.00in /  0mm 0.00 W/m2
22:59 37.1 °F /  2.8 °C 35.8 °F /  2.1 °C 29.86in /  1011.1hPa ENE 21.0mph /  33.8km/h 24.0mph /  38.6km/h 95% 0.00in /  0mm 0.00 W/m2
23:04 37.1 °F /  2.8 °C 35.8 °F /  2.1 °C 29.86in /  1011.1hPa ENE 12.0mph /  19.3km/h 24.0mph /  38.6km/h 95% 0.00in /  0mm 0.00 W/m2
23:09 37.0 °F /  2.8 °C 35.7 °F /  2.1 °C 29.86in /  1011.1hPa ENE 14.0mph /  22.5km/h 24.0mph /  38.6km/h 95% 0.00in /  0mm 0.00 W/m2
23:14 37.0 °F /  2.8 °C 35.7 °F /  2.1 °C 29.86in /  1011.1hPa East 14.0mph /  22.5km/h 18.0mph /  29km/h 95% 0.00in /  0mm 0.00 W/m2
23:19 36.9 °F /  2.7 °C 35.6 °F /  2 °C 29.86in /  1011.1hPa ENE 12.0mph /  19.3km/h 19.0mph /  30.6km/h 95% 0.00in /  0mm 0.00 W/m2
23:24 36.9 °F /  2.7 °C 35.6 °F /  2 °C 29.86in /  1011.1hPa East 9.0mph /  14.5km/h 19.0mph /  30.6km/h 95% 0.00in /  0mm 0.00 W/m2
23:29 36.9 °F /  2.7 °C 35.6 °F /  2 °C 29.86in /  1011.1hPa East 9.0mph /  14.5km/h 19.0mph /  30.6km/h 95% 0.00in /  0mm 0.00 W/m2
23:34 36.8 °F /  2.7 °C 35.5 °F /  1.9 °C 29.86in /  1011.1hPa East 9.0mph /  14.5km/h 19.0mph /  30.6km/h 95% 0.00in /  0mm 0.00 W/m2
23:39 36.7 °F /  2.6 °C 35.4 °F /  1.9 °C 29.86in /  1011.1hPa East 13.0mph /  20.9km/h 27.0mph /  43.5km/h 95% 0.00in /  0mm 0.00 W/m2
23:44 36.7 °F /  2.6 °C 35.4 °F /  1.9 °C 29.86in /  1011.1hPa East 13.0mph /  20.9km/h 27.0mph /  43.5km/h 95% 0.00in /  0mm 0.00 W/m2
23:49 36.7 °F /  2.6 °C 35.4 °F /  1.9 °C 29.86in /  1011.1hPa ENE 9.0mph /  14.5km/h 20.0mph /  32.2km/h 95% 0.00in /  0mm 0.00 W/m2
23:54 36.6 °F /  2.6 °C 35.3 °F /  1.8 °C 29.86in /  1011.1hPa East 16.0mph /  25.7km/h 20.0mph /  32.2km/h 95% 0.00in /  0mm 0.00 W/m2
23:59 36.7 °F /  2.6 °C 35.4 °F /  1.9 °C 29.86in /  1011.1hPa East 11.0mph /  17.7km/h 17.0mph /  27.4km/h 95% 0.00in /  0mm 0.00 W/m2
Bismarck, North Dakota, USA
Compliments of Weather Underground - 4 mb